Time;durP1;ratioP1;P1;durP2;ratioP2;P2;SDS_P1;SDS_P2;PMS_P1;PMS_P2;Temp;Humidity;BMP_temperature;BMP_pressure;BME280_temperature;BME280_humidity;BME280_pressure;Samples;Min_cycle;Max_cycle;Signal;HPM_P1;HPM_P2
2021/10/12 00:02:26;;;;;;;35.93;15.63;;;;;;;9.40;57.55;100478.34;5006804;28;20394;-74
2021/10/12 00:04:53;;;;;;;32.13;16.53;;;;;;;9.39;57.42;100478.72;5008823;28;20467;-74
2021/10/12 00:07:20;;;;;;;36.27;16.53;;;;;;;9.38;57.83;100475.25;5007981;28;20103;-74
2021/10/12 00:09:47;;;;;;;38.33;16.90;;;;;;;9.37;57.98;100468.28;5004518;28;20453;-74
2021/10/12 00:12:13;;;;;;;32.40;15.27;;;;;;;9.35;58.15;100462.50;5004467;28;20058;-74
2021/10/12 00:14:40;;;;;;;32.63;16.50;;;;;;;9.34;57.90;100468.31;5007548;28;20061;-76
2021/10/12 00:17:07;;;;;;;33.43;15.97;;;;;;;9.33;57.98;100474.91;5022131;28;20053;-74
2021/10/12 00:19:34;;;;;;;35.13;16.43;;;;;;;9.33;58.29;100464.84;5003531;28;20058;-75
2021/10/12 00:22:01;;;;;;;30.87;16.10;;;;;;;9.33;58.59;100461.38;5004854;28;20046;-75
2021/10/12 00:24:28;;;;;;;33.00;16.20;;;;;;;9.31;58.90;100469.13;4996782;28;20053;-74
2021/10/12 00:26:55;;;;;;;35.37;15.63;;;;;;;9.27;59.23;100469.13;5004170;28;20050;-74
2021/10/12 00:29:22;;;;;;;32.47;16.00;;;;;;;9.27;58.71;100473.78;5005115;28;20050;-76
2021/10/12 00:31:49;;;;;;;36.47;17.10;;;;;;;9.24;59.17;100465.28;5001688;28;20050;-75
2021/10/12 00:34:18;;;;;;;33.73;15.43;;;;;;;9.22;59.23;100461.44;5006407;28;20054;-75
2021/10/12 00:36:46;;;;;;;29.37;16.57;;;;;;;9.23;59.39;100469.16;5007450;28;20681;-75
2021/10/12 00:39:13;;;;;;;31.73;15.87;;;;;;;9.22;59.29;100466.84;5011076;28;20128;-74
2021/10/12 00:41:40;;;;;;;31.67;15.27;;;;;;;9.23;58.77;100469.16;5006500;28;20486;-75
2021/10/12 00:44:07;;;;;;;38.83;16.37;;;;;;;9.23;59.02;100465.69;5014498;28;20066;-75
2021/10/12 00:46:35;;;;;;;28.63;15.63;;;;;;;9.23;58.66;100466.47;5017832;28;20233;-75
2021/10/12 00:49:03;;;;;;;32.60;16.73;;;;;;;9.27;58.82;100457.53;5008531;28;20049;-75
2021/10/12 00:51:30;;;;;;;32.50;15.70;;;;;;;9.29;58.86;100455.19;5007067;28;20099;-74
2021/10/12 00:53:57;;;;;;;35.33;15.97;;;;;;;9.32;58.52;100454.41;5007566;28;20394;-74
2021/10/12 00:56:24;;;;;;;32.63;15.60;;;;;;;9.32;58.84;100460.59;5009475;28;20104;-74
2021/10/12 00:58:51;;;;;;;36.83;17.43;;;;;;;9.32;58.71;100448.97;5009734;28;20058;-74
2021/10/12 01:01:19;;;;;;;33.83;15.33;;;;;;;9.32;58.50;100449.75;5024738;28;20080;-74
2021/10/12 01:03:46;;;;;;;32.03;15.97;;;;;;;9.31;58.64;100450.16;5005726;28;20058;-75
2021/10/12 01:06:13;;;;;;;33.67;17.87;;;;;;;9.32;58.70;100449.75;5006480;28;20061;-74
2021/10/12 01:08:40;;;;;;;34.83;15.83;;;;;;;9.32;58.57;100448.97;5020952;28;20103;-75
2021/10/12 01:11:07;;;;;;;30.63;15.63;;;;;;;9.32;58.94;100448.97;5009117;28;20045;-74
2021/10/12 01:13:34;;;;;;;38.27;15.57;;;;;;;9.30;59.00;100440.47;5019586;28;20046;-75
2021/10/12 01:16:02;;;;;;;34.73;15.83;;;;;;;9.27;59.09;100441.28;5014818;28;20491;-74
2021/10/12 01:18:28;;;;;;;39.93;16.83;;;;;;;9.27;58.99;100441.28;5010041;28;20064;-75
2021/10/12 01:20:55;;;;;;;36.97;16.17;;;;;;;9.24;59.54;100435.50;5005722;28;20066;-75
2021/10/12 01:23:22;;;;;;;32.43;15.93;;;;;;;9.23;59.48;100439.38;5003907;28;20053;-75
2021/10/12 01:25:49;;;;;;;30.67;16.20;;;;;;;9.22;59.78;100440.53;5007001;28;20478;-74
2021/10/12 01:28:17;;;;;;;35.87;16.07;;;;;;;9.21;59.69;100439.00;5006419;28;20516;-75
2021/10/12 01:30:44;;;;;;;35.63;16.60;;;;;;;9.16;59.79;100431.31;5003569;28;20165;-74
2021/10/12 01:33:11;;;;;;;38.80;16.67;;;;;;;9.12;60.01;100430.59;5005480;28;20496;-74
2021/10/12 01:35:39;;;;;;;38.03;19.07;;;;;;;9.06;60.11;100431.41;5009745;28;20048;-74
2021/10/12 01:38:05;;;;;;;37.23;17.57;;;;;;;9.03;60.64;100432.19;5001563;28;20042;-74
2021/10/12 01:40:33;;;;;;;39.97;17.43;;;;;;;9.00;60.51;100425.63;5006416;28;20042;-76
2021/10/12 01:42:59;;;;;;;40.77;17.23;;;;;;;8.96;60.85;100429.56;5013287;28;20116;-75
2021/10/12 01:45:26;;;;;;;39.73;17.67;;;;;;;8.94;60.79;100429.97;5012392;28;20116;-75
2021/10/12 01:47:53;;;;;;;34.20;17.20;;;;;;;8.92;61.23;100421.47;5021498;28;20469;-75
2021/10/12 01:50:21;;;;;;;45.90;18.23;;;;;;;8.92;61.15;100415.28;5004038;28;20049;-74
2021/10/12 01:52:48;;;;;;;38.50;16.37;;;;;;;8.91;61.22;100414.50;5002798;28;20460;-76
2021/10/12 01:55:19;;;;;;;34.77;16.93;;;;;;;8.87;61.77;100413.75;5005157;28;20050;-75
2021/10/12 01:57:46;;;;;;;35.13;16.17;;;;;;;8.85;61.73;100416.88;5005825;28;20486;-74
2021/10/12 02:00:13;;;;;;;37.97;17.20;;;;;;;8.82;62.05;100411.47;5004474;28;20104;-75
2021/10/12 02:02:40;;;;;;;27.83;16.37;;;;;;;8.80;61.80;100409.16;5008292;28;20058;-75
2021/10/12 02:05:08;;;;;;;34.27;16.47;;;;;;;8.78;61.92;100410.72;5009424;28;20054;-75
2021/10/12 02:07:34;;;;;;;34.50;17.87;;;;;;;8.78;61.97;100410.72;5002165;28;20042;-74
2021/10/12 02:10:03;;;;;;;36.13;17.73;;;;;;;8.75;62.42;100404.19;5003245;28;20062;-74
2021/10/12 02:12:30;;;;;;;38.90;17.93;;;;;;;8.73;62.77;100409.25;5010661;28;20494;-74
2021/10/12 02:14:57;;;;;;;36.77;19.00;;;;;;;8.70;62.74;100414.69;5010688;28;20064;-75
2021/10/12 02:17:24;;;;;;;40.30;19.63;;;;;;;8.68;62.28;100403.47;5012519;28;20045;-75
2021/10/12 02:19:51;;;;;;;46.40;19.53;;;;;;;8.69;62.52;100405.00;5011823;28;20068;-76
2021/10/12 02:22:18;;;;;;;35.47;18.57;;;;;;;8.65;63.09;100406.97;5007146;28;20092;-75
2021/10/12 02:24:45;;;;;;;39.80;18.60;;;;;;;8.64;62.88;100405.44;5008550;28;20109;-74
2021/10/12 02:27:12;;;;;;;42.53;20.37;;;;;;;8.63;62.59;100403.88;5007698;28;20053;-75
2021/10/12 02:29:38;;;;;;;45.33;18.10;;;;;;;8.56;63.16;100399.28;5032560;28;20100;-75
2021/10/12 02:32:05;;;;;;;41.30;19.07;;;;;;;8.54;62.99;100401.63;5005464;28;20556;-75
2021/10/12 02:34:33;;;;;;;40.43;18.97;;;;;;;8.50;63.00;100382.69;5005899;28;20124;-75
2021/10/12 02:37:00;;;;;;;43.43;20.17;;;;;;;8.49;63.68;100389.31;5012038;28;20046;-75
2021/10/12 02:39:27;;;;;;;44.87;20.13;;;;;;;8.49;63.88;100380.41;5011490;28;20460;-74
2021/10/12 02:41:53;;;;;;;48.73;20.47;;;;;;;8.48;63.62;100374.22;5010947;28;20066;-75
2021/10/12 02:44:20;;;;;;;47.23;22.17;;;;;;;8.43;63.84;100371.19;5009224;28;20058;-75
2021/10/12 02:46:47;;;;;;;46.60;22.00;;;;;;;8.36;63.83;100369.28;5012538;28;20053;-75
2021/10/12 02:49:14;;;;;;;45.50;22.57;;;;;;;8.32;63.96;100371.22;5003806;28;20050;-75
2021/10/12 02:51:41;;;;;;;52.03;21.77;;;;;;;8.30;64.48;100368.13;5010719;28;20474;-74
2021/10/12 02:54:08;;;;;;;45.43;22.00;;;;;;;8.25;64.73;100363.16;5007883;28;20101;-74
2021/10/12 02:56:35;;;;;;;44.17;20.13;;;;;;;8.22;65.17;100363.94;5007208;28;20107;-76
2021/10/12 02:59:02;;;;;;;52.83;20.87;;;;;;;8.21;65.51;100362.41;5001410;28;20637;-74
2021/10/12 03:01:29;;;;;;;43.20;19.90;;;;;;;8.20;64.81;100356.22;5006159;28;20269;-75
2021/10/12 03:03:56;;;;;;;46.67;21.87;;;;;;;8.19;64.95;100356.59;5004138;28;20107;-75
2021/10/12 03:06:23;;;;;;;45.83;21.53;;;;;;;8.17;64.73;100358.94;5002151;28;20145;-74
2021/10/12 03:08:49;;;;;;;42.33;21.13;;;;;;;8.10;65.09;100361.66;5007259;28;20085;-75
2021/10/12 03:11:17;;;;;;;50.07;21.77;;;;;;;8.05;64.99;100364.78;5005728;28;20081;-75
2021/10/12 03:13:43;;;;;;;44.00;18.80;;;;;;;8.02;65.04;100371.00;5004826;28;20136;-75
2021/10/12 03:16:10;;;;;;;36.00;19.33;;;;;;;7.95;65.77;100362.91;5001481;28;20089;-74
2021/10/12 03:18:38;;;;;;;35.90;18.03;;;;;;;7.92;65.64;100366.41;5003647;28;20046;-75
2021/10/12 03:21:05;;;;;;;36.63;17.67;;;;;;;7.86;65.93;100358.69;4999317;28;20140;-74
2021/10/12 03:23:32;;;;;;;34.70;17.20;;;;;;;7.82;66.73;100357.16;5009957;28;20144;-75
2021/10/12 03:25:59;;;;;;;35.57;17.73;;;;;;;7.75;67.17;100360.69;5011497;28;20450;-75
2021/10/12 03:28:26;;;;;;;40.23;16.57;;;;;;;7.71;67.23;100359.16;5002146;28;20142;-75
2021/10/12 03:30:53;;;;;;;34.53;14.80;;;;;;;7.68;67.07;100374.22;5005378;28;20566;-75
2021/10/12 03:33:20;;;;;;;32.00;15.07;;;;;;;7.66;67.46;100360.34;5008903;28;20144;-76
2021/10/12 03:35:57;;;;;;;28.53;15.70;;;;;;;7.63;67.73;100363.81;5010378;28;20111;-75
2021/10/12 03:38:26;;;;;;;27.37;14.60;;;;;;;7.64;67.85;100365.34;5008638;28;20074;-76
2021/10/12 03:40:53;;;;;;;36.27;15.23;;;;;;;7.67;68.18;100374.63;5011502;28;20482;-75
2021/10/12 03:43:23;;;;;;;39.83;15.47;;;;;;;7.69;68.17;100370.38;5003689;28;20046;-76
2021/10/12 03:45:50;;;;;;;33.80;15.93;;;;;;;7.71;67.90;100367.28;5001496;28;20058;-75
2021/10/12 03:48:17;;;;;;;27.33;15.57;;;;;;;7.73;67.95;100365.72;5031006;28;20055;-75
2021/10/12 03:50:44;;;;;;;31.73;14.53;;;;;;;7.75;67.89;100368.81;5004386;28;20141;-76
2021/10/12 03:53:11;;;;;;;42.40;14.97;;;;;;;7.76;67.65;100364.16;4991236;28;20078;-75
2021/10/12 03:55:37;;;;;;;28.63;14.90;;;;;;;7.76;67.89;100372.28;5007329;28;20130;-76
2021/10/12 03:58:04;;;;;;;31.67;14.77;;;;;;;7.76;68.26;100375.75;5004759;28;20475;-76
2021/10/12 04:00:31;;;;;;;35.60;15.83;;;;;;;7.77;67.79;100365.72;5008877;28;20128;-75
2021/10/12 04:02:59;;;;;;;34.43;15.80;;;;;;;7.79;68.05;100374.19;5001712;28;20050;-76
2021/10/12 04:05:26;;;;;;;36.13;14.87;;;;;;;7.79;68.37;100364.16;5003078;28;20045;-75
2021/10/12 04:07:53;;;;;;;28.10;13.50;;;;;;;7.80;68.48;100364.91;4999703;28;20093;-75
2021/10/12 04:10:19;;;;;;;35.17;16.43;;;;;;;7.80;68.30;100360.25;5012457;28;20637;-75
2021/10/12 04:12:46;;;;;;;37.00;16.17;;;;;;;7.78;68.01;100356.44;5000123;28;20092;-75
2021/10/12 04:15:13;;;;;;;48.33;16.93;;;;;;;7.71;68.23;100357.22;5003341;28;20062;-75
2021/10/12 04:17:40;;;;;;;43.80;19.67;;;;;;;7.61;68.83;100363.44;5022035;28;20089;-75
2021/10/12 04:20:08;;;;;;;42.43;19.87;;;;;;;7.53;69.01;100357.31;5016699;28;20071;-76
2021/10/12 04:22:35;;;;;;;47.20;18.87;;;;;;;7.49;69.54;100361.16;5004465;28;20128;-76
2021/10/12 04:25:01;;;;;;;46.60;20.30;;;;;;;7.44;70.87;100359.63;5006675;28;20168;-76
2021/10/12 04:27:28;;;;;;;48.90;19.40;;;;;;;7.45;71.71;100350.38;5005572;28;20122;-76
2021/10/12 04:29:55;;;;;;;47.63;18.80;;;;;;;7.48;70.44;100354.22;5006037;28;20133;-76
2021/10/12 04:32:22;;;;;;;47.97;21.57;;;;;;;7.50;71.65;100346.50;5006480;28;20096;-75
2021/10/12 04:34:50;;;;;;;45.87;18.53;;;;;;;7.50;70.49;100349.97;5005344;28;20168;-76
2021/10/12 04:37:17;;;;;;;43.77;19.07;;;;;;;7.49;70.48;100356.53;5002628;28;20085;-74
2021/10/12 04:39:44;;;;;;;42.77;18.87;;;;;;;7.49;71.79;100355.75;5000362;28;20529;-77
2021/10/12 04:42:11;;;;;;;41.80;18.37;;;;;;;7.56;71.27;100353.03;5009140;28;20457;-74
2021/10/12 04:44:38;;;;;;;33.20;17.10;;;;;;;7.64;71.01;100351.84;4997970;28;20173;-73
2021/10/12 04:47:05;;;;;;;34.97;17.73;;;;;;;7.76;69.95;100353.34;4993662;28;20141;-74
2021/10/12 04:49:32;;;;;;;41.17;17.67;;;;;;;7.82;70.48;100352.53;5004222;28;20046;-76
2021/10/12 04:51:58;;;;;;;52.00;21.90;;;;;;;7.91;71.19;100354.06;5007472;28;20050;-75
2021/10/12 04:54:25;;;;;;;39.20;18.83;;;;;;;8.04;70.94;100361.31;5006135;28;20045;-74
2021/10/12 04:56:52;;;;;;;38.60;17.30;;;;;;;8.18;69.89;100355.06;5000157;28;20140;-76
2021/10/12 04:59:19;;;;;;;38.07;16.70;;;;;;;8.31;69.88;100356.13;5022871;28;20136;-75
2021/10/12 05:01:45;;;;;;;40.43;17.23;;;;;;;8.45;69.67;100356.09;5006702;28;20533;-74
2021/10/12 05:04:12;;;;;;;38.83;17.97;;;;;;;8.62;69.27;100342.81;5003857;28;20065;-77
2021/10/12 05:06:39;;;;;;;35.03;17.10;;;;;;;8.82;69.20;100339.16;5005417;28;20045;-77
2021/10/12 05:09:06;;;;;;;33.93;16.50;;;;;;;9.04;68.60;100344.38;5005591;28;20041;-76
2021/10/12 05:11:33;;;;;;;36.87;16.63;;;;;;;9.23;68.38;100351.91;5008340;28;20049;-77
2021/10/12 05:14:00;;;;;;;41.80;16.63;;;;;;;9.45;67.43;100333.50;5009184;28;20085;-75
2021/10/12 05:16:28;;;;;;;34.70;15.67;;;;;;;9.64;67.60;100330.19;5008735;28;20085;-75
2021/10/12 05:18:58;;;;;;;31.30;15.80;;;;;;;9.76;67.60;100328.88;5008143;28;20513;-76
2021/10/12 05:21:27;;;;;;;31.83;16.07;;;;;;;9.93;67.29;100325.91;5002714;28;20058;-75
2021/10/12 05:23:54;;;;;;;37.13;16.10;;;;;;;10.24;66.79;100325.91;5003944;28;20485;-73
2021/10/12 05:26:22;;;;;;;28.00;14.67;;;;;;;10.51;65.64;100325.91;5008725;28;20088;-75
2021/10/12 05:28:53;;;;;;;31.80;15.00;;;;;;;10.69;64.90;100331.03;5004807;28;20073;-74
2021/10/12 05:31:21;;;;;;;24.70;13.73;;;;;;;10.83;64.75;100325.38;5002051;28;20510;-75
2021/10/12 05:33:48;;;;;;;24.67;13.57;;;;;;;11.07;64.26;100324.16;5007589;28;20054;-74
2021/10/12 05:36:16;;;;;;;21.73;12.07;;;;;;;11.35;63.44;100327.53;5008222;28;20141;-75
2021/10/12 05:38:43;;;;;;;33.97;14.33;;;;;;;11.52;62.52;100321.75;5007444;28;20086;-74
2021/10/12 05:41:10;;;;;;;20.77;12.27;;;;;;;11.81;61.93;100319.22;5006862;28;20469;-75
2021/10/12 05:43:38;;;;;;;35.80;12.17;;;;;;;11.95;61.25;100316.22;5022842;28;20093;-76
2021/10/12 05:46:05;;;;;;;24.73;13.57;;;;;;;12.21;60.55;100313.69;5020654;28;20460;-73
2021/10/12 05:48:32;;;;;;;28.63;13.07;;;;;;;12.48;59.63;100314.22;5012019;28;20073;-73
2021/10/12 05:50:59;;;;;;;22.17;12.13;;;;;;;12.74;59.23;100308.94;5010360;28;20328;-73
2021/10/12 05:53:35;;;;;;;24.67;12.27;;;;;;;13.05;57.68;100310.06;5008681;28;20093;-74
2021/10/12 05:56:07;;;;;;;24.17;11.17;;;;;;;13.37;57.15;100316.63;5010083;28;20129;-74
2021/10/12 05:58:41;;;;;;;24.33;11.70;;;;;;;13.63;56.73;100313.53;5007716;28;20564;-74
2021/10/12 06:01:09;;;;;;;20.70;10.50;;;;;;;13.74;56.16;100318.69;5007101;28;20046;-74
2021/10/12 06:03:36;;;;;;;23.67;11.37;;;;;;;13.83;55.87;100313.34;5010626;28;20104;-75
2021/10/12 06:06:03;;;;;;;28.13;11.47;;;;;;;14.00;55.46;100306.59;5011477;28;20676;-74
2021/10/12 06:08:31;;;;;;;22.13;10.77;;;;;;;14.08;55.41;100314.56;5012894;28;20533;-74
2021/10/12 06:10:59;;;;;;;20.50;10.47;;;;;;;14.29;54.95;100324.81;5008699;28;20072;-75
2021/10/12 06:13:26;;;;;;;18.50;10.00;;;;;;;14.55;54.72;100320.13;5013019;28;20092;-73
2021/10/12 06:15:53;;;;;;;19.53;11.13;;;;;;;14.79;53.74;100312.31;5013891;28;20148;-74
2021/10/12 06:18:20;;;;;;;21.40;11.13;;;;;;;15.06;52.91;100307.09;5025428;28;20049;-73
2021/10/12 06:20:48;;;;;;;22.70;11.87;;;;;;;15.21;52.67;100302.63;5009606;28;20148;-74
2021/10/12 06:23:16;;;;;;;24.37;12.20;;;;;;;15.45;52.22;100302.19;5012426;28;20141;-75
2021/10/12 06:25:45;;;;;;;32.87;14.33;;;;;;;15.55;52.50;100304.53;5007505;28;20136;-74
2021/10/12 06:28:14;;;;;;;34.17;13.37;;;;;;;15.79;51.93;100298.63;5008021;28;20119;-74
2021/10/12 06:30:42;;;;;;;29.60;14.13;;;;;;;16.01;50.24;100305.56;5007065;28;20417;-74
2021/10/12 06:33:10;;;;;;;26.10;13.70;;;;;;;16.06;51.15;100303.44;5009712;28;20116;-74
2021/10/12 06:35:37;;;;;;;30.50;12.33;;;;;;;16.25;50.66;100300.31;5009654;28;20060;-74
2021/10/12 06:38:05;;;;;;;26.83;12.77;;;;;;;16.55;49.92;100301.44;5005182;28;20153;-74
2021/10/12 06:40:33;;;;;;;26.87;13.60;;;;;;;16.70;49.80;100301.66;5008472;28;20769;-73
2021/10/12 06:43:01;;;;;;;29.10;12.20;;;;;;;16.80;49.55;100305.16;5010044;28;20149;-74
2021/10/12 06:45:28;;;;;;;27.20;12.30;;;;;;;16.82;49.23;100302.72;5009840;28;20138;-74
2021/10/12 06:47:55;;;;;;;24.17;11.82;;;;;;;16.55;49.49;100298.69;5005297;28;20137;-73
2021/10/12 06:50:23;;;;;;;27.58;12.55;;;;;;;16.06;50.54;100306.97;5006278;28;20054;-72
2021/10/12 06:52:50;;;;;;;28.48;14.50;;;;;;;15.94;50.73;100308.56;5006352;28;20086;-74
2021/10/12 06:55:27;;;;;;;30.67;14.75;;;;;;;15.99;50.25;100307.97;5009428;28;20103;-75
2021/10/12 06:57:58;;;;;;;27.63;13.93;;;;;;;15.79;51.48;100304.09;5023675;28;20058;-74
2021/10/12 07:00:27;;;;;;;28.52;13.43;;;;;;;15.88;51.15;100304.13;5022976;28;20046;-75
2021/10/12 07:02:54;;;;;;;33.63;14.55;;;;;;;15.94;51.01;100308.56;5003352;28;20090;-75
2021/10/12 07:05:21;;;;;;;28.13;14.05;;;;;;;16.06;50.80;100298.75;5011940;28;20045;-74
2021/10/12 07:07:47;;;;;;;30.65;14.82;;;;;;;16.08;50.49;100290.81;5010222;28;20132;-74
2021/10/12 07:10:15;;;;;;;38.60;16.13;;;;;;;16.21;50.50;100293.47;5013437;28;20050;-76
2021/10/12 07:12:43;;;;;;;25.27;14.38;;;;;;;16.58;49.91;100292.31;5010959;28;20100;-74
2021/10/12 07:15:11;;;;;;;29.55;13.93;;;;;;;17.22;48.86;100295.13;5011201;28;20049;-75
2021/10/12 07:17:38;;;;;;;25.40;12.63;;;;;;;17.55;48.09;100292.44;5013351;28;20046;-74
2021/10/12 07:20:06;;;;;;;24.55;13.50;;;;;;;17.92;47.45;100290.41;5006229;28;20049;-74
2021/10/12 07:22:36;;;;;;;28.77;14.65;;;;;;;18.26;46.34;100285.63;5010724;28;20050;-73
2021/10/12 07:25:06;;;;;;;24.67;12.77;;;;;;;18.53;46.21;100282.72;5009627;28;20361;-73
2021/10/12 07:27:34;;;;;;;23.65;13.23;;;;;;;18.52;45.08;100278.47;5010906;28;20086;-74
2021/10/12 07:30:16;;;;;;;26.80;13.52;;;;;;;18.55;45.18;100277.53;5008959;28;20128;-73
2021/10/12 07:32:43;;;;;;;24.58;12.75;;;;;;;18.93;45.34;100276.03;5008419;28;20129;-74
2021/10/12 07:35:10;;;;;;;27.88;12.40;;;;;;;18.89;45.09;100269.97;5012327;28;20121;-73
2021/10/12 07:37:38;;;;;;;22.35;12.50;;;;;;;19.19;43.93;100260.53;5007222;28;20058;-74
2021/10/12 07:40:05;;;;;;;26.27;12.35;;;;;;;19.57;44.06;100267.22;5006123;28;20129;-73
2021/10/12 07:42:32;;;;;;;27.10;12.45;;;;;;;19.62;43.87;100258.25;5010615;28;20132;-74
2021/10/12 07:45:02;;;;;;;25.20;13.52;;;;;;;19.67;43.62;100254.84;5025586;28;20200;-75
2021/10/12 07:47:29;;;;;;;24.02;12.50;;;;;;;19.79;43.12;100267.56;5011849;28;20085;-74
2021/10/12 07:49:56;;;;;;;22.75;12.05;;;;;;;20.09;42.91;100252.47;5013199;28;20124;-74
2021/10/12 07:52:23;;;;;;;28.15;11.75;;;;;;;20.25;42.32;100259.44;5007640;28;20054;-73
2021/10/12 07:54:59;;;;;;;24.63;11.73;;;;;;;20.30;42.53;100255.25;5023864;28;20172;-76
2021/10/12 07:57:26;;;;;;;22.27;11.32;;;;;;;20.39;42.31;100257.91;5010432;28;20468;-74
2021/10/12 07:59:53;;;;;;;23.20;11.43;;;;;;;20.32;41.80;100252.75;5007434;28;20164;-73
2021/10/12 08:02:20;;;;;;;24.33;11.73;;;;;;;20.22;41.94;100252.16;5010186;28;20050;-74
2021/10/12 08:04:47;;;;;;;19.55;11.32;;;;;;;20.70;41.39;100244.25;5010254;28;20062;-75
2021/10/12 08:07:14;;;;;;;27.60;11.82;;;;;;;20.62;41.84;100247.91;5010476;28;20465;-74
2021/10/12 08:09:41;;;;;;;29.85;12.07;;;;;;;20.90;41.31;100239.94;5008587;28;20526;-74
2021/10/12 08:12:08;;;;;;;27.88;11.70;;;;;;;20.88;41.21;100236.91;5037748;28;20054;-74
2021/10/12 08:14:41;;;;;;;22.10;10.43;;;;;;;20.48;41.74;100224.69;5006926;28;20129;-74
2021/10/12 08:17:08;;;;;;;28.88;11.20;;;;;;;20.13;42.43;100234.97;5009710;28;20546;-75
2021/10/12 08:19:35;;;;;;;22.98;11.30;;;;;;;20.08;42.44;100228.13;5009425;28;20052;-74
2021/10/12 08:22:02;;;;;;;23.45;10.75;;;;;;;19.74;42.87;100226.91;5010006;28;20096;-75
2021/10/12 08:24:30;;;;;;;28.70;12.40;;;;;;;19.34;43.55;100228.28;5008834;28;20045;-75
2021/10/12 08:26:57;;;;;;;18.40;9.60;;;;;;;19.51;43.31;100220.31;5009065;28;20066;-73
2021/10/12 08:29:24;;;;;;;18.38;10.15;;;;;;;19.82;42.92;100225.28;5008786;28;20096;-74
2021/10/12 08:31:51;;;;;;;20.38;10.98;;;;;;;19.99;42.66;100220.00;5009423;28;20092;-74
2021/10/12 08:34:18;;;;;;;22.35;10.77;;;;;;;20.22;42.53;100221.06;5009838;28;20045;-74
2021/10/12 08:36:45;;;;;;;19.80;10.30;;;;;;;20.59;42.30;100216.53;5009813;28;20045;-75
2021/10/12 08:39:12;;;;;;;19.60;10.60;;;;;;;20.83;41.89;100215.53;5009474;28;20509;-73
2021/10/12 08:41:47;;;;;;;16.52;10.75;;;;;;;21.05;41.54;100213.75;5010022;28;20505;-75
2021/10/12 08:44:14;;;;;;;22.67;11.50;;;;;;;21.11;41.30;100206.28;5008474;28;20136;-77
2021/10/12 08:46:42;;;;;;;20.63;11.52;;;;;;;21.29;41.27;100196.91;5009807;28;20085;-76
2021/10/12 08:49:11;;;;;;;18.30;10.00;;;;;;;21.59;40.04;100204.91;5009461;28;20080;-73
2021/10/12 08:51:42;;;;;;;20.88;10.48;;;;;;;21.71;39.75;100201.75;5009160;28;20077;-75
2021/10/12 08:54:14;;;;;;;14.20;8.82;;;;;;;21.84;40.20;100198.56;5009599;28;20052;-74
2021/10/12 08:56:44;;;;;;;17.58;8.35;;;;;;;22.13;40.16;100199.50;5009456;28;20096;-74
2021/10/12 08:59:11;;;;;;;21.58;9.57;;;;;;;22.38;39.71;100190.31;5008592;28;20163;-74
2021/10/12 09:01:58;;;;;;;13.75;8.32;;;;;;;22.24;38.41;100188.47;5003898;28;20049;-75
2021/10/12 09:04:37;;;;;;;13.18;7.45;;;;;;;22.33;38.66;100185.50;5008460;28;20046;-75
2021/10/12 09:07:04;;;;;;;19.67;8.65;;;;;;;22.12;39.56;100193.22;5009472;28;20050;-74
2021/10/12 09:09:35;;;;;;;15.38;8.50;;;;;;;21.99;39.65;100181.78;5009326;28;20133;-75
2021/10/12 09:12:03;;;;;;;18.77;8.80;;;;;;;21.87;39.42;100181.00;5009400;28;20104;-75
2021/10/12 09:14:30;;;;;;;18.00;9.32;;;;;;;21.92;39.61;100171.97;5006322;28;20069;-73
2021/10/12 09:17:05;;;;;;;19.50;9.18;;;;;;;22.30;39.03;100161.59;5008379;28;20065;-73
2021/10/12 09:19:35;;;;;;;22.27;9.05;;;;;;;22.53;39.00;100157.66;5008114;28;20046;-74
2021/10/12 09:22:06;;;;;;;15.35;8.48;;;;;;;22.59;39.10;100158.44;5008990;28;20136;-74
2021/10/12 09:24:39;;;;;;;19.98;8.15;;;;;;;22.84;37.79;100142.16;5008164;28;20108;-74
2021/10/12 09:27:10;;;;;;;11.95;6.72;;;;;;;22.89;38.54;100149.69;5005360;28;20096;-75
2021/10/12 09:32:06;;;;;;;11.32;5.78;;;;;;;23.07;38.11;100132.59;5005414;28;20173;-74
2021/10/12 09:34:35;;;;;;;14.35;6.55;;;;;;;23.10;37.82;100137.13;5008060;28;20107;-73
2021/10/12 09:37:03;;;;;;;12.55;6.40;;;;;;;23.25;38.00;100140.38;5040287;28;20553;-73
2021/10/12 09:39:32;;;;;;;11.75;5.85;;;;;;;23.43;37.79;100131.53;5008905;28;20525;-74
2021/10/12 09:42:07;;;;;;;12.77;6.32;;;;;;;23.43;37.50;100128.75;5008410;28;20058;-73
2021/10/12 09:44:34;;;;;;;11.98;6.55;;;;;;;23.48;37.86;100127.25;5005006;28;20649;-75
2021/10/12 09:47:13;;;;;;;16.90;7.13;;;;;;;23.68;37.20;100120.69;5007301;28;20074;-74
2021/10/12 09:49:41;;;;;;;14.55;7.47;;;;;;;23.58;38.22;100116.69;5005109;28;20073;-75
2021/10/12 09:52:13;;;;;;;14.00;7.75;;;;;;;23.38;38.00;100112.19;5008393;28;20074;-75
2021/10/12 09:54:57;;;;;;;13.82;6.95;;;;;;;23.03;38.33;100115.47;5008517;28;20140;-75
2021/10/12 09:57:27;;;;;;;;;;;;;;;22.90;38.86;100106.94;5009550;28;20077;-76
2021/10/12 09:59:54;;;;;;;12.75;7.03;;;;;;;22.86;38.82;100106.41;5008653;28;20011;-76
2021/10/12 10:02:24;;;;;;;19.42;8.13;;;;;;;22.83;38.77;100097.09;5008666;28;20104;-74
2021/10/12 10:04:54;;;;;;;13.95;7.15;;;;;;;22.77;39.42;100094.34;5007820;28;20057;-73
2021/10/12 10:07:25;;;;;;;13.80;7.65;;;;;;;22.82;39.50;100094.84;5009162;28;20084;-75
2021/10/12 10:09:56;;;;;;;14.10;7.95;;;;;;;22.95;39.34;100092.31;5005534;28;20084;-75
2021/10/12 10:12:25;;;;;;;15.55;7.80;;;;;;;22.72;39.37;100078.44;5009182;28;20104;-74
2021/10/12 10:14:52;;;;;;;14.57;7.80;;;;;;;22.67;39.88;100084.75;5005661;28;20466;-74
2021/10/12 10:17:21;;;;;;;16.55;8.00;;;;;;;22.29;39.84;100082.66;5007751;28;20081;-75
2021/10/12 10:19:48;;;;;;;15.98;8.68;;;;;;;22.25;39.95;100076.63;5023802;28;20050;-76
2021/10/12 10:22:34;;;;;;;16.30;8.50;;;;;;;22.10;41.01;100080.38;5008554;28;20046;-74
2021/10/12 10:25:21;;;;;;;15.90;9.38;;;;;;;22.21;40.95;100070.56;5009024;28;20133;-74
2021/10/12 10:27:48;;;;;;;18.48;9.13;;;;;;;22.24;40.82;100086.94;5003667;28;20762;-76
2021/10/12 10:30:22;;;;;;;18.88;9.27;;;;;;;22.21;40.61;100078.88;5009410;28;20088;-75
2021/10/12 10:32:53;;;;;;;17.73;9.48;;;;;;;21.98;40.83;100070.50;5009310;28;20165;-75
2021/10/12 10:35:35;;;;;;;15.80;9.63;;;;;;;22.02;40.95;100068.28;5011796;28;20077;-76
2021/10/12 10:38:20;;;;;;;17.40;10.30;;;;;;;22.02;41.40;100064.75;5026916;28;20144;-74
2021/10/12 10:41:11;;;;;;;24.73;10.73;;;;;;;21.62;41.77;100063.81;5011799;28;20324;-75
2021/10/12 10:44:01;;;;;;;20.60;10.07;;;;;;;20.98;43.63;100064.41;5012378;28;20081;-75
2021/10/12 10:46:30;;;;;;;20.45;10.90;;;;;;;20.56;43.92;100063.06;5012538;28;20470;-76
2021/10/12 10:49:13;;;;;;;20.38;11.23;;;;;;;20.44;45.17;100050.44;5012869;28;20108;-74
2021/10/12 10:51:59;;;;;;;17.35;10.15;;;;;;;20.34;45.54;100057.31;5012288;28;20524;-74
2021/10/12 10:54:39;;;;;;;15.98;10.60;;;;;;;20.46;46.20;100039.69;5006359;28;20054;-76
2021/10/12 10:57:18;;;;;;;17.02;9.82;;;;;;;20.71;45.36;100047.16;5010299;28;20050;-76
2021/10/12 10:59:46;;;;;;;19.48;10.48;;;;;;;20.82;44.83;100040.97;5009875;28;20623;-75
2021/10/12 11:02:33;;;;;;;12.55;9.27;;;;;;;20.76;45.55;100049.22;5011810;28;20096;-75
2021/10/12 11:05:00;;;;;;;19.38;9.10;;;;;;;20.41;45.79;100034.84;5015072;28;20057;-76
2021/10/12 11:07:28;;;;;;;21.55;10.25;;;;;;;20.22;45.89;100033.66;5011140;28;20053;-75
2021/10/12 11:09:57;;;;;;;17.35;9.23;;;;;;;20.38;46.02;100035.81;5011295;28;20050;-76
2021/10/12 11:12:24;;;;;;;16.45;10.02;;;;;;;20.51;46.09;100032.69;5009114;28;20050;-76
2021/10/12 11:14:53;;;;;;;18.48;10.77;;;;;;;20.56;46.03;100024.44;5010974;28;20058;-77
2021/10/12 11:17:23;;;;;;;19.98;9.57;;;;;;;20.60;46.16;100024.25;5010255;28;20109;-76
2021/10/12 11:20:01;;;;;;;16.02;9.15;;;;;;;20.43;46.25;100035.13;5010802;28;20089;-75
2021/10/12 11:22:29;;;;;;;18.05;9.25;;;;;;;20.23;46.79;100035.16;5012061;28;20132;-74
2021/10/12 11:24:57;;;;;;;20.08;9.45;;;;;;;19.97;47.46;100030.38;5026079;28;20066;-76